Time,TemperatureF,DewpointF,PressureIn,WindDirection,WindDirectionDegrees,WindSpeedMPH,WindSpeedGustMPH,Humidity,HourlyPrecipIn,Conditions,Clouds,dailyrainin,SolarRadiationWatts/m^2,SoftwareType,DateUTC
2013-01-29 07:05:00,46.9,35.0,0.00,NNW,338,7.6,7.6,63,-99.99,,---,-99.99,0.00,VWS V14.01,2013-01-29 13:05:00,
2013-01-29 07:06:00,46.9,35.0,0.00,NNW,338,7.6,7.6,63,-99.99,,---,-99.99,0.00,VWS V14.01,2013-01-29 13:06:00,
2013-01-29 07:12:00,46.9,35.0,0.00,NNW,338,8.1,8.1,63,-99.99,,---,-99.99,0.00,VWS V14.01,2013-01-29 13:12:00,
2013-01-29 07:17:00,46.4,35.3,29.53,WNW,292,6.0,6.0,65,-99.99,,---,-99.99,0.00,VWS V14.01,2013-01-29 13:17:00,
2013-01-29 07:23:00,46.2,35.5,29.53,NNW,338,5.8,8.5,66,-99.99,,---,-99.99,0.00,VWS V14.01,2013-01-29 13:23:00,
2013-01-29 07:29:00,45.9,35.2,29.53,NW,315,8.1,8.1,66,-99.99,,---,-99.99,0.00,VWS V14.01,2013-01-29 13:29:00,
2013-01-29 07:35:00,45.9,35.2,29.53,NNW,338,7.4,7.4,66,-99.99,,---,-99.99,0.00,VWS V14.01,2013-01-29 13:35:00,
2013-01-29 07:41:00,45.5,35.2,29.53,NW,315,7.8,7.8,67,-99.99,,---,-99.99,0.00,VWS V14.01,2013-01-29 13:41:00,
2013-01-29 07:47:00,45.0,35.4,29.53,NW,315,9.6,10.5,69,-99.99,,---,-99.99,0.00,VWS V14.01,2013-01-29 13:47:00,
2013-01-29 07:53:00,44.6,34.7,29.56,NW,315,7.2,8.7,68,-99.99,,---,-99.99,0.00,VWS V14.01,2013-01-29 13:53:00,
2013-01-29 08:00:00,0.0,0.0,29.56,NW,315,9.8,9.8,0,-99.99,,---,-99.99,0.00,VWS V14.01,2013-01-29 14:00:00,
2013-01-29 08:06:00,44.1,34.2,29.56,NW,315,10.3,10.3,68,-99.99,,---,-99.99,0.00,VWS V14.01,2013-01-29 14:06:00,
2013-01-29 08:12:00,44.1,34.2,29.56,NNW,338,10.1,10.1,68,-99.99,,---,-99.99,0.00,VWS V14.01,2013-01-29 14:12:00,
2013-01-29 08:18:00,43.0,33.5,29.56,NNW,338,7.2,10.3,69,-99.99,,---,-99.99,0.00,VWS V14.01,2013-01-29 14:18:00,
2013-01-29 08:23:00,42.8,33.3,29.56,NE,45,4.9,5.6,69,-99.99,,---,-99.99,0.00,VWS V14.01,2013-01-29 14:23:00,
2013-01-29 08:29:00,42.8,33.3,29.56,North,0,5.8,5.8,69,-99.99,,---,-99.99,0.00,VWS V14.01,2013-01-29 14:29:00,
2013-01-29 08:35:00,42.8,33.3,29.56,NNW,338,3.8,6.0,69,-99.99,,---,-99.99,0.00,VWS V14.01,2013-01-29 14:35:00,
2013-01-29 08:41:00,42.8,33.7,29.53,North,0,6.5,6.5,70,-99.99,,---,-99.99,0.00,VWS V14.01,2013-01-29 14:41:00,
2013-01-29 08:47:00,42.6,33.2,29.53,NNE,22,3.4,4.0,69,-99.99,,---,-99.99,0.00,VWS V14.01,2013-01-29 14:47:00,
2013-01-29 08:52:00,42.4,33.0,29.56,NNE,22,3.8,5.4,69,-99.99,,---,-99.99,0.00,VWS V14.01,2013-01-29 14:52:00,
2013-01-29 08:57:00,42.4,33.0,29.56,NNE,22,5.6,8.7,69,-99.99,,---,-99.99,0.00,VWS V14.01,2013-01-29 14:57:00,
2013-01-29 09:02:00,42.4,33.0,29.56,North,0,6.0,10.3,69,-99.99,,---,-99.99,0.00,VWS V14.01,2013-01-29 15:02:00,
2013-01-29 09:08:00,42.3,33.2,29.56,NW,315,5.4,5.4,70,-99.99,,---,-99.99,0.00,VWS V14.01,2013-01-29 15:08:00,
2013-01-29 09:14:00,42.1,34.4,29.56,NW,315,11.0,11.0,74,-99.99,,---,-99.99,0.00,VWS V14.01,2013-01-29 15:14:00,
2013-01-29 09:19:00,41.9,35.2,29.56,NNW,338,7.4,7.6,77,-99.99,,---,-99.99,0.00,VWS V14.01,2013-01-29 15:19:00,
2013-01-29 09:24:00,41.9,35.2,29.59,NW,315,9.4,9.4,77,-99.99,,---,-99.99,0.00,VWS V14.01,2013-01-29 15:24:00,
2013-01-29 09:30:00,41.9,35.2,29.59,NW,315,9.4,9.4,77,-99.99,,---,-99.99,0.00,VWS V14.01,2013-01-29 15:30:00,
2013-01-29 09:36:00,41.4,35.3,29.59,NNW,338,6.0,8.1,79,-99.99,,---,-99.99,0.00,VWS V14.01,2013-01-29 15:36:00,
2013-01-29 09:42:00,41.2,35.2,29.56,NNW,338,7.8,7.8,79,-99.99,,---,-99.99,0.00,VWS V14.01,2013-01-29 15:42:00,
2013-01-29 09:48:00,41.2,35.5,29.56,WNW,292,9.6,9.6,80,-99.99,,---,-99.99,0.00,VWS V14.01,2013-01-29 15:48:00,
2013-01-29 09:54:00,41.0,35.3,29.56,NW,315,4.9,6.5,80,-99.99,,---,-99.99,0.00,VWS V14.01,2013-01-29 15:54:00,
2013-01-29 09:59:00,40.6,34.7,29.56,NNW,338,5.6,5.6,79,-99.99,,---,-99.99,0.00,VWS V14.01,2013-01-29 15:59:00,
2013-01-29 10:05:00,40.6,34.7,29.56,North,0,3.1,3.1,79,-99.99,,---,-99.99,0.00,VWS V14.01,2013-01-29 16:05:00,
2013-01-29 10:11:00,40.3,33.7,29.56,NNW,338,4.3,4.3,77,-99.99,,---,-99.99,0.00,VWS V14.01,2013-01-29 16:11:00,
2013-01-29 10:16:00,39.9,33.3,29.56,NNE,22,0.0,0.0,77,-99.99,,---,-99.99,0.00,VWS V14.01,2013-01-29 16:16:00,
2013-01-29 10:21:00,39.9,33.3,29.56,NNE,22,2.0,2.7,77,-99.99,,---,-99.99,0.00,VWS V14.01,2013-01-29 16:21:00,
2013-01-29 10:27:00,39.9,33.3,29.56,NW,315,4.9,4.9,77,-99.99,,---,-99.99,0.00,VWS V14.01,2013-01-29 16:27:00,
2013-01-29 10:33:00,39.9,33.3,29.56,WNW,292,5.6,5.6,77,-99.99,,---,-99.99,0.00,VWS V14.01,2013-01-29 16:33:00,
2013-01-29 10:39:00,39.9,33.3,29.56,NNW,338,3.6,3.6,77,-99.99,,---,-99.99,0.00,VWS V14.01,2013-01-29 16:39:00,
2013-01-29 10:44:00,39.4,32.8,29.56,North,0,5.6,6.0,77,-99.99,,---,-99.99,0.00,VWS V14.01,2013-01-29 16:44:00,
2013-01-29 10:49:00,39.2,32.3,29.56,NNE,22,3.6,3.6,76,-99.99,,---,-99.99,0.00,VWS V14.01,2013-01-29 16:49:00,
2013-01-29 10:54:00,39.2,32.3,29.56,NNE,22,5.6,5.6,76,-99.99,,---,-99.99,0.00,VWS V14.01,2013-01-29 16:54:00,
2013-01-29 10:59:00,39.2,32.3,29.56,NNW,338,4.9,5.6,76,-99.99,,---,-99.99,0.00,VWS V14.01,2013-01-29 16:59:00,
2013-01-29 11:05:00,39.0,32.1,29.56,NNW,338,4.3,4.3,76,-99.99,,---,-99.99,0.00,VWS V14.01,2013-01-29 17:05:00,
2013-01-29 11:10:00,39.2,32.6,29.56,NNW,338,0.0,3.4,77,-99.99,,---,-99.99,0.00,VWS V14.01,2013-01-29 17:10:00,
2013-01-29 11:15:00,39.2,32.6,29.56,NNE,22,2.5,2.7,77,-99.99,,---,-99.99,0.00,VWS V14.01,2013-01-29 17:15:00,
2013-01-29 11:21:00,39.4,32.8,29.56,NNW,338,2.2,2.9,77,-99.99,,---,-99.99,0.00,VWS V14.01,2013-01-29 17:21:00,
2013-01-29 11:26:00,39.4,33.1,29.56,North,0,4.0,4.0,78,-99.99,,---,-99.99,0.00,VWS V14.01,2013-01-29 17:26:00,
2013-01-29 11:32:00,39.4,32.8,29.56,North,0,4.0,5.4,77,-99.99,,---,-99.99,0.00,VWS V14.01,2013-01-29 17:32:00,
2013-01-29 11:37:00,39.2,32.3,29.56,NNW,338,3.8,4.0,76,-99.99,,---,-99.99,0.00,VWS V14.01,2013-01-29 17:37:00,
2013-01-29 11:43:00,39.0,32.1,29.56,NNW,338,4.3,4.3,76,-99.99,,---,-99.99,0.00,VWS V14.01,2013-01-29 17:43:00,
2013-01-29 11:48:00,39.0,32.1,29.56,North,0,3.8,3.8,76,-99.99,,---,-99.99,0.00,VWS V14.01,2013-01-29 17:48:00,
2013-01-29 11:53:00,38.8,31.6,29.53,NW,315,1.6,1.6,75,-99.99,,---,-99.99,0.00,VWS V14.01,2013-01-29 17:53:00,
2013-01-29 11:58:00,38.8,31.6,29.53,NNW,338,4.9,5.6,75,-99.99,,---,-99.99,0.00,VWS V14.01,2013-01-29 17:58:00,
2013-01-29 12:04:00,38.7,31.4,29.53,West,270,5.6,5.6,75,-99.99,,---,-99.99,0.00,VWS V14.01,2013-01-29 18:04:00,
2013-01-29 12:09:00,38.5,31.3,29.53,NW,315,2.7,2.7,75,-99.99,,---,-99.99,0.00,VWS V14.01,2013-01-29 18:09:00,
2013-01-29 12:15:00,38.5,31.3,29.53,NNE,22,4.9,4.9,75,-99.99,,---,-99.99,0.00,VWS V14.01,2013-01-29 18:15:00,
2013-01-29 12:20:00,38.5,31.3,29.53,North,0,3.6,3.6,75,-99.99,,---,-99.99,0.00,VWS V14.01,2013-01-29 18:20:00,
2013-01-29 12:25:00,38.1,30.9,29.53,North,0,7.4,7.4,75,-99.99,,---,-99.99,0.00,VWS V14.01,2013-01-29 18:25:00,
2013-01-29 12:31:00,38.1,30.9,29.53,NNW,338,5.8,5.8,75,-99.99,,---,-99.99,0.00,VWS V14.01,2013-01-29 18:31:00,
2013-01-29 12:36:00,37.8,30.2,29.50,NNE,22,5.6,6.5,74,-99.99,,---,-99.99,0.00,VWS V14.01,2013-01-29 18:36:00,
2013-01-29 12:42:00,37.8,30.6,29.50,NNW,338,3.8,6.0,75,-99.99,,---,-99.99,0.00,VWS V14.01,2013-01-29 18:42:00,
2013-01-29 12:47:00,37.8,30.9,29.50,NNE,22,5.4,6.3,76,-99.99,,---,-99.99,0.00,VWS V14.01,2013-01-29 18:47:00,
2013-01-29 12:52:00,37.8,30.9,29.50,NNW,338,7.4,7.4,76,-99.99,,---,-99.99,0.00,VWS V14.01,2013-01-29 18:52:00,
2013-01-29 12:58:00,37.4,30.5,29.50,NNW,338,6.5,8.7,76,-99.99,,---,-99.99,0.00,VWS V14.01,2013-01-29 18:58:00,
2013-01-29 13:03:00,37.4,30.5,29.50,NNW,338,8.1,8.1,76,-99.99,,---,-99.99,0.00,VWS V14.01,2013-01-29 19:03:00,
2013-01-29 13:09:00,37.4,30.5,29.50,NNE,22,7.6,8.5,76,-99.99,,---,-99.99,0.00,VWS V14.01,2013-01-29 19:09:00,
2013-01-29 13:15:00,37.2,30.7,29.50,North,0,7.4,8.1,77,-99.99,,---,-99.99,0.00,VWS V14.01,2013-01-29 19:15:00,
2013-01-29 13:21:00,37.2,30.7,29.50,NNW,338,6.9,7.6,77,-99.99,,---,-99.99,0.00,VWS V14.01,2013-01-29 19:21:00,
2013-01-29 13:27:00,37.0,30.5,29.50,NNE,22,2.5,3.8,77,-99.99,,---,-99.99,0.00,VWS V14.01,2013-01-29 19:27:00,
2013-01-29 13:32:00,37.0,30.5,29.50,NNE,22,5.4,5.4,77,-99.99,,---,-99.99,0.00,VWS V14.01,2013-01-29 19:32:00,
2013-01-29 13:37:00,37.0,30.5,29.47,NNW,338,7.8,7.8,77,-99.99,,---,-99.99,0.00,VWS V14.01,2013-01-29 19:37:00,
2013-01-29 13:42:00,37.0,30.5,29.47,NNW,338,4.3,7.8,77,-99.99,,---,-99.99,0.00,VWS V14.01,2013-01-29 19:42:00,
2013-01-29 13:48:00,37.0,30.5,29.47,NNW,338,8.1,8.1,77,-99.99,,---,-99.99,0.00,VWS V14.01,2013-01-29 19:48:00,
2013-01-29 13:54:00,36.9,30.6,29.47,NNE,22,4.0,4.0,78,-99.99,,---,-99.99,0.00,VWS V14.01,2013-01-29 19:54:00,
2013-01-29 13:59:00,37.0,31.1,29.47,NNW,338,6.5,9.0,79,-99.99,,---,-99.99,0.00,VWS V14.01,2013-01-29 19:59:00,
2013-01-29 14:01:00,37.0,31.1,29.47,NNE,22,6.0,6.5,79,-99.99,,---,-99.99,0.00,VWS V14.01,2013-01-29 20:01:00,
2013-01-29 14:07:00,32.4,26.6,29.47,NNE,22,6.5,6.5,79,-99.99,,---,-99.99,0.00,VWS V14.01,2013-01-29 20:07:00,
2013-01-29 14:13:00,37.0,31.1,29.47,ENE,68,3.8,3.8,79,-99.99,,---,-99.99,0.00,VWS V14.01,2013-01-29 20:13:00,
2013-01-29 14:19:00,37.0,31.5,29.47,NNW,338,10.5,10.5,80,-99.99,,---,-99.99,0.00,VWS V14.01,2013-01-29 20:19:00,
2013-01-29 14:24:00,37.0,31.5,29.47,North,0,7.4,7.4,80,-99.99,,---,-99.99,0.00,VWS V14.01,2013-01-29 20:24:00,
2013-01-29 14:29:00,37.0,31.5,29.47,NNW,338,11.0,11.0,80,-99.99,,---,-99.99,0.00,VWS V14.01,2013-01-29 20:29:00,
2013-01-29 14:35:00,37.0,31.5,29.47,NNW,338,7.8,8.7,80,-99.99,,---,-99.99,0.00,VWS V14.01,2013-01-29 20:35:00,
2013-01-29 14:41:00,37.0,31.5,29.47,NNW,338,6.0,7.6,80,-99.99,,---,-99.99,0.00,VWS V14.01,2013-01-29 20:41:00,
2013-01-29 14:46:00,37.0,31.8,29.44,NNW,338,7.4,7.4,81,-99.99,,---,-99.99,0.00,VWS V14.01,2013-01-29 20:46:00,
2013-01-29 14:52:00,37.0,31.8,29.47,North,0,6.9,9.6,81,-99.99,,---,-99.99,0.00,VWS V14.01,2013-01-29 20:52:00,
2013-01-29 14:58:00,37.0,31.8,29.47,NNW,338,10.1,10.1,81,-99.99,,---,-99.99,0.00,VWS V14.01,2013-01-29 20:58:00,
2013-01-29 15:04:00,36.9,31.0,29.47,ENE,68,3.4,7.4,79,-99.99,,---,-99.99,0.00,VWS V14.01,2013-01-29 21:04:00,
2013-01-29 15:09:00,36.9,31.0,29.47,NNE,22,6.0,6.0,79,-99.99,,---,-99.99,0.00,VWS V14.01,2013-01-29 21:09:00,
2013-01-29 15:14:00,36.9,31.3,29.41,NNW,338,7.4,7.4,80,-99.99,,---,-99.99,0.00,VWS V14.01,2013-01-29 21:14:00,
2013-01-29 15:20:00,36.9,31.3,29.41,NNE,22,6.5,6.5,80,-99.99,,---,-99.99,0.00,VWS V14.01,2013-01-29 21:20:00,
2013-01-29 15:27:00,36.7,30.8,29.41,NNE,22,11.4,11.4,79,-99.99,,---,-99.99,0.00,VWS V14.01,2013-01-29 21:27:00,
2013-01-29 15:33:00,36.7,30.8,29.41,NNE,22,9.8,9.8,79,-99.99,,---,-99.99,0.00,VWS V14.01,2013-01-29 21:33:00,
2013-01-29 15:39:00,36.7,30.8,29.41,NNE,22,8.1,8.1,79,-99.99,,---,-99.99,0.00,VWS V14.01,2013-01-29 21:39:00,
2013-01-29 15:44:00,36.7,30.8,29.44,NNE,22,8.7,8.7,79,-99.99,,---,-99.99,0.00,VWS V14.01,2013-01-29 21:44:00,
2013-01-29 15:49:00,36.3,30.8,29.44,North,0,12.8,12.8,80,-99.99,,---,-99.99,0.00,VWS V14.01,2013-01-29 21:49:00,
2013-01-29 15:54:00,36.1,30.9,29.53,NNW,338,14.5,14.5,81,-99.99,,---,-99.99,0.00,VWS V14.01,2013-01-29 21:54:00,
2013-01-29 16:00:00,36.1,30.9,29.53,North,0,57.3,57.3,81,-99.99,,---,-99.99,0.00,VWS V14.01,2013-01-29 22:00:00,
2013-01-29 16:05:00,36.1,30.9,29.53,North,0,6.3,6.3,81,-99.99,,---,-99.99,0.00,VWS V14.01,2013-01-29 22:05:00,
2013-01-29 16:10:00,36.1,30.9,29.50,NNW,338,8.1,8.1,81,-99.99,,---,-99.99,0.00,VWS V14.01,2013-01-29 22:10:00,
2013-01-29 16:16:00,36.1,31.2,29.50,NNW,338,10.5,10.5,82,-99.99,,---,-99.99,0.00,VWS V14.01,2013-01-29 22:16:00,
2013-01-29 16:21:00,36.1,30.9,29.50,NNE,22,7.2,8.1,81,-99.99,,---,-99.99,0.00,VWS V14.01,2013-01-29 22:21:00,
2013-01-29 16:27:00,36.1,30.9,29.50,NNW,338,7.6,10.7,81,-99.99,,---,-99.99,0.00,VWS V14.01,2013-01-29 22:27:00,
2013-01-29 16:32:00,36.1,30.9,29.50,NNE,22,4.7,5.4,81,-99.99,,---,-99.99,0.00,VWS V14.01,2013-01-29 22:32:00,
2013-01-29 16:38:00,36.1,30.9,29.47,NNW,338,8.7,8.7,81,-99.99,,---,-99.99,0.00,VWS V14.01,2013-01-29 22:38:00,
2013-01-29 16:43:00,36.1,30.9,29.47,NNE,22,6.3,8.1,81,-99.99,,---,-99.99,0.00,VWS V14.01,2013-01-29 22:43:00,
2013-01-29 16:49:00,36.1,30.9,29.47,NNE,22,8.5,8.5,81,-99.99,,---,-99.99,0.00,VWS V14.01,2013-01-29 22:49:00,
2013-01-29 16:54:00,36.1,30.9,29.44,NNE,22,6.3,8.5,81,-99.99,,---,-99.99,0.00,VWS V14.01,2013-01-29 22:54:00,
2013-01-29 17:00:00,36.1,30.9,29.44,NNE,22,3.8,4.7,81,-99.99,,---,-99.99,0.00,VWS V14.01,2013-01-29 23:00:00,
2013-01-29 17:05:00,36.1,30.9,29.47,NE,45,5.4,10.1,81,-99.99,,---,-99.99,0.00,VWS V14.01,2013-01-29 23:05:00,
2013-01-29 17:11:00,36.1,30.9,29.47,NNE,22,10.3,10.3,81,-99.99,,---,-99.99,0.00,VWS V14.01,2013-01-29 23:11:00,
2013-01-29 17:16:00,36.1,30.6,29.47,NNE,22,8.5,8.5,80,-99.99,,---,-99.99,0.00,VWS V14.01,2013-01-29 23:16:00,
2013-01-29 17:23:00,36.1,30.3,29.44,NNE,22,4.0,4.0,79,-99.99,,---,-99.99,0.00,VWS V14.01,2013-01-29 23:23:00,
2013-01-29 17:28:00,36.1,30.3,29.44,NNE,22,3.6,5.8,79,-99.99,,---,-99.99,0.00,VWS V14.01,2013-01-29 23:28:00,
2013-01-29 17:33:00,36.1,30.3,29.44,NNE,22,6.3,6.3,79,-99.99,,---,-99.99,0.00,VWS V14.01,2013-01-29 23:33:00,
2013-01-29 17:40:00,36.1,30.3,0.00,North,0,8.1,8.1,79,-99.99,,---,-99.99,0.00,VWS V14.01,2013-01-29 23:40:00,
2013-01-29 17:46:00,36.1,30.3,29.50,NNE,22,7.8,7.8,79,-99.99,,---,-99.99,0.00,VWS V14.01,2013-01-29 23:46:00,
2013-01-29 17:51:00,36.1,30.3,29.47,North,0,2.2,2.2,79,-99.99,,---,-99.99,0.00,VWS V14.01,2013-01-29 23:51:00,
2013-01-29 17:56:00,36.0,30.1,29.47,NNE,22,4.3,4.3,79,-99.99,,---,-99.99,0.00,VWS V14.01,2013-01-29 23:56:00,
2013-01-29 18:02:00,36.0,30.1,29.47,NNE,22,4.0,5.6,79,-99.99,,---,-99.99,0.00,VWS V14.01,2013-01-30 00:02:00,
2013-01-29 18:09:00,36.1,30.3,29.50,NNW,338,7.2,7.2,79,-99.99,,---,-99.99,0.00,VWS V14.01,2013-01-30 00:09:00,
2013-01-29 18:14:00,36.1,30.3,29.50,NW,315,6.0,6.0,79,-99.99,,---,-99.99,0.00,VWS V14.01,2013-01-30 00:14:00,
2013-01-29 18:19:00,36.1,30.3,29.53,NNW,338,2.9,2.9,79,-99.99,,---,-99.99,0.00,VWS V14.01,2013-01-30 00:19:00,
2013-01-29 18:25:00,36.1,30.3,29.53,NNW,338,6.0,7.6,79,-99.99,,---,-99.99,0.00,VWS V14.01,2013-01-30 00:25:00,
2013-01-29 18:31:00,36.1,30.3,29.53,NNW,338,6.0,6.0,79,-99.99,,---,-99.99,0.00,VWS V14.01,2013-01-30 00:31:00,
2013-01-29 18:36:00,36.0,30.1,29.53,NNE,22,4.0,4.0,79,-99.99,,---,-99.99,0.00,VWS V14.01,2013-01-30 00:36:00,
2013-01-29 18:42:00,36.0,30.1,29.53,NNE,22,4.0,4.0,79,-99.99,,---,-99.99,0.00,VWS V14.01,2013-01-30 00:42:00,
2013-01-29 18:48:00,35.8,29.9,29.53,NNE,22,7.4,7.4,79,-99.99,,---,-99.99,0.00,VWS V14.01,2013-01-30 00:48:00,
2013-01-29 18:54:00,35.8,29.9,29.47,ENE,68,4.9,6.3,79,-99.99,,---,-99.99,0.00,VWS V14.01,2013-01-30 00:54:00,
2013-01-29 19:00:00,35.6,29.7,29.47,NNE,22,7.8,7.8,79,-99.99,,---,-99.99,0.00,VWS V14.01,2013-01-30 01:00:00,
2013-01-29 19:16:00,35.4,29.6,29.47,NNE,22,6.0,6.0,79,-99.99,,---,-99.99,0.00,VWS V14.01,2013-01-30 01:16:00,
2013-01-29 19:22:00,35.4,29.9,29.50,NNW,338,3.8,7.8,80,-99.99,,---,-99.99,0.00,VWS V14.01,2013-01-30 01:22:00,
2013-01-29 19:27:00,35.2,29.7,29.50,NNE,22,6.3,6.3,80,-99.99,,---,-99.99,0.00,VWS V14.01,2013-01-30 01:27:00,
2013-01-29 19:33:00,35.2,29.7,29.50,NNE,22,8.7,8.7,80,-99.99,,---,-99.99,0.00,VWS V14.01,2013-01-30 01:33:00,
2013-01-29 19:39:00,35.1,29.5,29.50,North,0,8.5,8.5,80,-99.99,,---,-99.99,0.00,VWS V14.01,2013-01-30 01:39:00,
2013-01-29 19:45:00,35.1,29.5,29.50,NNE,22,3.6,3.6,80,-99.99,,---,-99.99,0.00,VWS V14.01,2013-01-30 01:45:00,
2013-01-29 19:51:00,34.9,29.4,29.50,NNE,22,7.6,7.6,80,-99.99,,---,-99.99,0.00,VWS V14.01,2013-01-30 01:51:00,
2013-01-29 19:56:00,34.9,29.4,29.50,NNE,22,7.6,7.6,80,-99.99,,---,-99.99,0.00,VWS V14.01,2013-01-30 01:56:00,
2013-01-29 20:01:00,34.7,29.2,29.50,NNE,22,4.9,7.8,80,-99.99,,---,-99.99,0.00,VWS V14.01,2013-01-30 02:01:00,
2013-01-29 20:07:00,34.7,29.2,29.50,NNE,22,5.8,5.8,80,-99.99,,---,-99.99,0.00,VWS V14.01,2013-01-30 02:07:00,
2013-01-29 20:13:00,34.7,29.2,29.50,North,0,6.3,7.4,80,-99.99,,---,-99.99,0.00,VWS V14.01,2013-01-30 02:13:00,
2013-01-29 20:19:00,34.5,29.3,29.50,NNE,22,5.8,5.8,81,-99.99,,---,-99.99,0.00,VWS V14.01,2013-01-30 02:19:00,
2013-01-29 20:25:00,34.5,29.3,29.50,NNE,22,12.3,12.3,81,-99.99,,---,-99.99,0.00,VWS V14.01,2013-01-30 02:25:00,
2013-01-29 20:31:00,34.5,29.3,29.50,NNE,22,5.4,5.4,81,-99.99,,---,-99.99,0.00,VWS V14.01,2013-01-30 02:31:00,
2013-01-29 20:36:00,34.3,29.1,29.50,NNW,338,5.8,8.1,81,-99.99,,---,-99.99,0.00,VWS V14.01,2013-01-30 02:36:00,
2013-01-29 20:42:00,34.3,29.1,29.50,ENE,68,10.5,10.5,81,-99.99,,---,-99.99,0.00,VWS V14.01,2013-01-30 02:42:00,
2013-01-29 20:48:00,34.3,29.1,29.50,NNE,22,7.6,7.6,81,-99.99,,---,-99.99,0.00,VWS V14.01,2013-01-30 02:48:00,
2013-01-29 20:54:00,34.3,29.1,29.50,NNE,22,5.4,5.4,81,-99.99,,---,-99.99,0.00,VWS V14.01,2013-01-30 02:54:00,
2013-01-29 20:59:00,34.2,29.0,29.50,NNE,22,7.6,7.6,81,-99.99,,---,-99.99,0.00,VWS V14.01,2013-01-30 02:59:00,
2013-01-29 21:05:00,34.0,29.1,29.50,North,0,2.9,6.5,82,-99.99,,---,-99.99,0.00,VWS V14.01,2013-01-30 03:05:00,
2013-01-29 21:10:00,34.0,29.1,29.50,NNE,22,4.5,4.5,82,-99.99,,---,-99.99,0.00,VWS V14.01,2013-01-30 03:10:00,